Time;durP1;ratioP1;P1;durP2;ratioP2;P2;SDS_P1;SDS_P2;PMS_P1;PMS_P2;Temp;Humidity;BMP_temperature;BMP_pressure;BME280_temperature;BME280_humidity;BME280_pressure;Samples;Min_cycle;Max_cycle;Signal;HPM_P1;HPM_P2
2021/07/02 00:02:21;;;;;;;8.85;3.05;;;;;;;16.48;78.02;100056.92;126547;1093;22756;-78
2021/07/02 00:04:54;;;;;;;10.55;2.95;;;;;;;16.44;77.90;100058.48;126628;1093;22906;-78
2021/07/02 00:07:26;;;;;;;7.83;2.50;;;;;;;16.39;78.04;100059.31;126578;1093;22812;-78
2021/07/02 00:09:57;;;;;;;7.50;2.85;;;;;;;16.33;77.92;100050.88;126595;1093;22764;-78
2021/07/02 00:12:30;;;;;;;8.95;2.60;;;;;;;16.27;77.97;100052.97;126494;1093;22843;-78
2021/07/02 00:15:02;;;;;;;10.35;3.20;;;;;;;16.23;78.08;100052.49;126572;1092;26244;-78
2021/07/02 00:17:33;;;;;;;8.30;2.45;;;;;;;16.18;77.95;100056.87;126676;1093;22865;-78
2021/07/02 00:20:05;;;;;;;6.70;2.40;;;;;;;16.14;77.76;100049.98;126577;1093;22814;-78
2021/07/02 00:22:36;;;;;;;10.25;2.05;;;;;;;16.07;77.57;100059.78;126658;1093;23533;-78
2021/07/02 00:25:09;;;;;;;10.20;2.15;;;;;;;16.02;77.52;100054.16;126532;1093;22838;-78
2021/07/02 00:27:41;;;;;;;8.35;2.00;;;;;;;15.97;77.74;100055.72;126596;1091;27635;-78
2021/07/02 00:30:15;;;;;;;8.40;1.90;;;;;;;15.93;77.54;100049.59;126525;1093;22769;-78
2021/07/02 00:32:46;;;;;;;6.55;2.00;;;;;;;15.86;77.69;100055.03;126540;1093;22790;-78
2021/07/02 00:35:18;;;;;;;8.75;1.80;;;;;;;15.81;77.03;100050.95;126518;1093;22788;-78
2021/07/02 00:37:52;;;;;;;6.90;1.40;;;;;;;15.77;77.18;100058.91;126525;1092;28350;-78
2021/07/02 00:40:23;;;;;;;5.45;1.70;;;;;;;15.74;77.14;100059.19;126510;1093;23575;-78
2021/07/02 00:42:54;;;;;;;6.55;1.50;;;;;;;15.68;77.40;100058.45;126428;1092;27518;-78
2021/07/02 00:45:25;;;;;;;7.43;1.77;;;;;;;15.66;77.69;100055.39;126555;1089;25522;-78
2021/07/02 00:47:57;;;;;;;8.70;1.90;;;;;;;15.65;77.56;100056.66;126482;1093;22864;-79
2021/07/02 00:50:28;;;;;;;4.80;1.70;;;;;;;15.62;77.42;100058.45;126548;1093;27227;-80
2021/07/02 00:53:00;;;;;;;5.30;1.55;;;;;;;15.59;77.53;100050.30;126526;1092;23672;-79
2021/07/02 00:55:31;;;;;;;5.80;1.85;;;;;;;15.53;77.75;100049.55;126541;1093;22870;-80
2021/07/02 00:58:04;;;;;;;11.50;1.70;;;;;;;15.49;77.53;100052.65;126517;1093;27287;-79
2021/07/02 01:00:35;;;;;;;7.90;1.80;;;;;;;15.44;77.32;100049.83;126595;1093;23396;-79
2021/07/02 01:03:06;;;;;;;12.75;1.80;;;;;;;15.39;77.44;100046.50;126561;1093;22861;-80
2021/07/02 01:05:38;;;;;;;5.30;1.40;;;;;;;15.35;77.34;100048.81;126488;1093;22794;-79
2021/07/02 01:08:09;;;;;;;8.45;1.60;;;;;;;15.32;77.50;100057.53;126482;1091;22778;-80
2021/07/02 01:10:42;;;;;;;9.10;2.30;;;;;;;15.31;77.44;100064.45;126582;1093;23350;-79
2021/07/02 01:13:14;;;;;;;7.05;1.60;;;;;;;15.28;77.44;100059.84;126530;1092;25993;-79
2021/07/02 01:15:52;;;;;;;5.20;1.85;;;;;;;15.25;77.57;100050.39;126587;1093;27325;-79
2021/07/02 01:18:23;;;;;;;8.07;1.83;;;;;;;15.23;77.63;100049.36;126547;1093;26496;-79
2021/07/02 01:20:56;;;;;;;5.65;1.80;;;;;;;15.21;77.71;100049.89;126595;1092;24587;-79
2021/07/02 01:23:27;;;;;;;5.30;1.70;;;;;;;15.18;77.50;100053.74;126510;1093;22807;-79
2021/07/02 01:26:00;;;;;;;7.70;1.80;;;;;;;15.16;77.77;100042.25;126582;1093;25957;-79
2021/07/02 01:28:31;;;;;;;7.73;1.37;;;;;;;15.14;77.95;100044.03;126579;1093;25874;-79
2021/07/02 01:31:03;;;;;;;7.10;1.55;;;;;;;15.08;77.70;100049.66;126535;1092;22786;-79
2021/07/02 01:33:35;;;;;;;7.47;1.77;;;;;;;15.06;78.05;100043.78;126507;1091;22921;-80
2021/07/02 01:36:08;;;;;;;6.30;1.50;;;;;;;15.00;77.82;100040.22;126516;1092;27322;-79
2021/07/02 01:38:40;;;;;;;7.50;1.50;;;;;;;14.91;77.79;100026.45;126438;1093;22903;-79
2021/07/02 01:41:11;;;;;;;6.00;1.40;;;;;;;14.87;77.89;100025.95;126509;1093;23119;-79
2021/07/02 01:43:42;;;;;;;5.93;1.33;;;;;;;14.84;77.99;100023.39;126512;1093;28764;-79
2021/07/02 01:46:15;;;;;;;4.95;1.40;;;;;;;14.80;78.11;100018.03;126491;1093;23063;-80
2021/07/02 01:48:47;;;;;;;5.55;1.40;;;;;;;14.79;78.19;100024.95;126622;1093;25954;-79
2021/07/02 01:51:18;;;;;;;6.60;1.60;;;;;;;14.75;78.52;100018.83;126510;1093;22796;-79
2021/07/02 01:53:49;;;;;;;5.90;1.20;;;;;;;14.70;78.36;100027.25;126546;1092;22845;-80
2021/07/02 01:56:20;;;;;;;7.35;1.30;;;;;;;14.62;78.57;100038.24;126474;1093;22783;-79
2021/07/02 01:58:54;;;;;;;7.75;1.40;;;;;;;14.57;78.61;100028.53;126513;1093;22760;-79
2021/07/02 02:01:26;;;;;;;9.10;1.45;;;;;;;14.55;78.68;100021.89;126529;1093;28458;-79
2021/07/02 02:03:58;;;;;;;9.10;1.50;;;;;;;14.51;79.13;100024.97;126622;1093;22787;-78
2021/07/02 02:06:29;;;;;;;5.95;1.30;;;;;;;14.51;78.97;100029.81;126578;1092;22809;-79
2021/07/02 02:09:01;;;;;;;9.23;1.20;;;;;;;14.50;78.91;100031.84;126465;1093;22848;-79
2021/07/02 02:11:33;;;;;;;6.10;1.40;;;;;;;14.49;79.26;100035.17;126486;1093;22778;-78
2021/07/02 02:14:10;;;;;;;8.77;1.57;;;;;;;14.48;78.74;100040.02;126490;1093;22852;-78
2021/07/02 02:16:41;;;;;;;5.80;1.40;;;;;;;14.50;78.91;100045.15;126541;1093;22823;-78
2021/07/02 02:19:14;;;;;;;6.30;1.40;;;;;;;14.48;79.47;100039.27;126462;1090;25941;-78
2021/07/02 02:21:45;;;;;;;7.20;1.50;;;;;;;14.47;78.82;100048.97;126483;1093;22761;-78
2021/07/02 02:24:16;;;;;;;9.83;1.47;;;;;;;14.45;78.91;100043.09;126502;1093;23697;-79
2021/07/02 02:26:49;;;;;;;10.10;1.50;;;;;;;14.40;78.76;100049.49;126449;1093;22921;-78
2021/07/02 02:29:20;;;;;;;9.15;1.55;;;;;;;14.36;78.98;100048.98;126471;1093;22863;-78
2021/07/02 02:31:52;;;;;;;5.45;1.35;;;;;;;14.29;78.82;100038.24;126467;1093;25255;-79
2021/07/02 02:34:23;;;;;;;9.87;1.53;;;;;;;14.24;79.38;100050.19;126491;1093;26928;-78
2021/07/02 02:36:55;;;;;;;12.25;2.05;;;;;;;14.18;79.47;100038.19;126511;1093;23015;-78
2021/07/02 02:39:26;;;;;;;7.65;1.20;;;;;;;14.12;79.64;100043.80;126458;1091;23452;-78
2021/07/02 02:41:58;;;;;;;4.20;1.20;;;;;;;14.09;79.81;100041.26;126386;1093;22812;-78
2021/07/02 02:44:30;;;;;;;14.40;2.40;;;;;;;14.08;79.34;100045.33;126691;1090;85803;-67
2021/07/02 02:47:02;;;;;;;10.03;1.50;;;;;;;14.04;79.57;100047.62;125847;1092;26868;-66
2021/07/02 02:49:33;;;;;;;11.65;1.80;;;;;;;14.02;79.93;100039.71;125870;1093;22787;-67
2021/07/02 02:52:08;;;;;;;15.15;1.90;;;;;;;14.00;79.75;100047.88;125959;1093;22790;-67
2021/07/02 02:54:40;;;;;;;7.73;1.90;;;;;;;13.97;80.00;100048.88;125960;1093;24162;-67
2021/07/02 02:57:12;;;;;;;9.63;2.10;;;;;;;13.95;79.97;100050.65;125974;1093;26414;-66
2021/07/02 02:59:43;;;;;;;7.33;1.80;;;;;;;13.92;80.19;100049.64;126095;1093;25896;-67
2021/07/02 03:02:15;;;;;;;14.45;1.85;;;;;;;13.90;79.96;100034.58;125985;1092;22793;-66
2021/07/02 03:04:47;;;;;;;8.95;2.15;;;;;;;13.87;80.57;100035.58;125963;1093;22760;-66
2021/07/02 03:07:18;;;;;;;10.45;1.85;;;;;;;13.82;80.45;100041.97;125963;1093;22847;-67
2021/07/02 03:09:50;;;;;;;12.40;2.03;;;;;;;13.81;80.46;100044.00;125871;1093;27625;-67
2021/07/02 03:12:21;;;;;;;11.80;1.80;;;;;;;13.78;80.81;100042.96;125888;1092;22812;-67
2021/07/02 03:14:54;;;;;;;10.95;2.35;;;;;;;13.77;80.81;100047.05;125866;1093;25986;-67
2021/07/02 03:17:26;;;;;;;13.40;2.30;;;;;;;13.75;80.76;100038.38;125935;1092;22760;-67
2021/07/02 03:19:58;;;;;;;9.90;2.03;;;;;;;13.74;81.00;100039.63;125910;1091;22771;-67
2021/07/02 03:22:29;;;;;;;15.55;2.60;;;;;;;13.75;81.04;100052.41;125872;1093;22760;-67
2021/07/02 03:25:01;;;;;;;7.20;2.20;;;;;;;13.77;80.62;100047.05;125871;1091;22761;-67
2021/07/02 03:27:33;;;;;;;11.50;2.20;;;;;;;13.78;81.35;100044.99;125904;1093;22815;-67
2021/07/02 03:30:05;;;;;;;14.57;2.03;;;;;;;13.79;81.11;100041.70;125868;1093;24445;-67
2021/07/02 03:32:45;;;;;;;12.75;2.10;;;;;;;13.82;81.27;100051.16;126514;1092;22761;-65
2021/07/02 03:35:16;;;;;;;9.90;2.07;;;;;;;13.85;81.52;100064.16;125961;1093;22784;-67
2021/07/02 03:37:48;;;;;;;7.10;2.10;;;;;;;13.88;81.43;100068.00;125871;1093;22787;-67
2021/07/02 03:40:20;;;;;;;6.60;2.00;;;;;;;13.92;81.41;100065.71;125849;1093;22848;-67
2021/07/02 03:42:51;;;;;;;5.73;1.90;;;;;;;13.96;81.59;100066.23;125797;1093;23473;-67
2021/07/02 03:45:23;;;;;;;13.40;2.25;;;;;;;13.99;81.30;100063.16;125817;1093;22808;-67
2021/07/02 03:47:54;;;;;;;9.55;1.95;;;;;;;14.04;81.37;100061.65;125926;1092;27350;-66
2021/07/02 03:50:26;;;;;;;10.05;2.30;;;;;;;14.06;81.28;100059.10;125892;1093;22803;-67
2021/07/02 03:52:57;;;;;;;8.65;2.10;;;;;;;14.10;81.05;100054.00;125961;1093;22771;-68
2021/07/02 03:55:29;;;;;;;11.05;2.45;;;;;;;14.16;81.56;100057.59;125906;1093;22771;-67
2021/07/02 03:58:00;;;;;;;10.40;2.00;;;;;;;14.20;81.25;100055.30;125884;1092;22797;-66
2021/07/02 04:00:32;;;;;;;14.05;2.50;;;;;;;14.21;81.28;100068.07;125824;1093;22771;-67
2021/07/02 04:03:04;;;;;;;11.40;2.10;;;;;;;14.23;81.24;100077.53;126032;1092;22753;-67
2021/07/02 04:05:36;;;;;;;8.00;2.10;;;;;;;14.25;81.57;100089.02;125899;1093;22760;-67
2021/07/02 04:08:08;;;;;;;8.13;2.30;;;;;;;14.28;81.61;100075.98;125992;1093;22802;-67
2021/07/02 04:10:39;;;;;;;8.60;2.73;;;;;;;14.32;81.21;100076.52;125890;1093;22757;-67
2021/07/02 04:13:12;;;;;;;9.85;2.45;;;;;;;14.36;81.54;100083.42;125870;1091;22788;-67
2021/07/02 04:15:44;;;;;;;5.90;1.77;;;;;;;14.41;81.48;100081.90;125843;1093;25839;-66
2021/07/02 04:18:16;;;;;;;7.35;2.10;;;;;;;14.49;81.77;100077.31;126046;1093;22787;-67
2021/07/02 04:20:50;;;;;;;7.95;2.00;;;;;;;14.58;81.69;100080.65;126041;1093;24608;-67
2021/07/02 04:23:21;;;;;;;10.10;2.05;;;;;;;14.68;81.75;100072.72;126061;1093;22825;-68
2021/07/02 04:25:53;;;;;;;10.90;2.60;;;;;;;14.79;81.88;100075.53;125983;1092;22790;-68
2021/07/02 04:28:25;;;;;;;5.97;1.70;;;;;;;14.89;81.71;100073.98;126109;1093;22760;-68
2021/07/02 04:30:56;;;;;;;8.23;1.80;;;;;;;15.01;81.59;100066.30;126020;1092;26905;-67
2021/07/02 04:33:28;;;;;;;8.25;1.80;;;;;;;15.12;81.46;100072.68;126033;1091;22761;-68
2021/07/02 04:35:59;;;;;;;5.50;1.80;;;;;;;15.24;81.74;100076.98;126119;1092;22804;-69
2021/07/02 04:38:32;;;;;;;7.25;1.50;;;;;;;15.39;81.80;100063.38;126201;1093;22819;-70
2021/07/02 04:41:04;;;;;;;6.37;1.50;;;;;;;15.55;81.43;100066.68;126129;1091;22782;-68
2021/07/02 04:43:35;;;;;;;4.45;1.10;;;;;;;15.64;81.27;100069.98;126123;1092;25755;-68
2021/07/02 04:46:07;;;;;;;6.77;1.53;;;;;;;15.71;81.06;100068.66;126734;1092;22794;-69
2021/07/02 04:48:39;;;;;;;3.53;1.00;;;;;;;15.75;80.51;100074.77;126717;1093;23183;-59
2021/07/02 04:51:11;;;;;;;8.87;1.07;;;;;;;15.78;80.77;100073.75;126443;1093;22760;-61
2021/07/02 04:53:44;;;;;;;4.45;1.20;;;;;;;15.81;80.45;100072.70;126393;1093;22822;-60
2021/07/02 04:56:16;;;;;;;5.03;1.40;;;;;;;15.83;80.20;100075.78;126373;1093;22778;-61
2021/07/02 04:58:52;;;;;;;8.65;1.35;;;;;;;15.85;79.98;100061.95;126530;1093;22796;-61
2021/07/02 05:01:25;;;;;;;5.80;1.20;;;;;;;15.85;79.79;100059.88;126349;1092;22764;-62
2021/07/02 05:03:57;;;;;;;10.47;1.53;;;;;;;15.88;80.29;100074.97;126340;1092;25703;-61
2021/07/02 05:06:29;;;;;;;5.60;1.30;;;;;;;15.90;79.57;100078.03;126408;1093;22791;-63
2021/07/02 05:09:00;;;;;;;6.25;1.35;;;;;;;15.88;79.62;100070.12;126495;1093;27337;-62
2021/07/02 05:11:33;;;;;;;4.83;1.10;;;;;;;15.89;79.86;100088.52;126257;1093;22788;-60
2021/07/02 05:14:05;;;;;;;3.57;1.00;;;;;;;15.94;79.46;100087.74;127189;1093;27339;-66
2021/07/02 05:16:36;;;;;;;6.70;1.40;;;;;;;15.97;79.32;100097.95;126335;1093;22801;-64
2021/07/02 05:19:08;;;;;;;6.10;1.35;;;;;;;16.01;79.87;100104.09;126331;1093;22795;-66
2021/07/02 05:21:40;;;;;;;6.60;1.40;;;;;;;16.05;78.75;100101.00;126336;1093;22771;-60
2021/07/02 05:24:12;;;;;;;5.45;1.50;;;;;;;16.06;79.56;100100.47;126273;1093;22763;-61
2021/07/02 05:26:48;;;;;;;8.65;1.90;;;;;;;16.09;79.47;100095.86;128381;1092;22806;-59
2021/07/02 05:29:20;;;;;;;5.35;1.50;;;;;;;16.14;79.20;100098.63;126298;1092;23492;-62
2021/07/02 05:31:52;;;;;;;5.57;1.50;;;;;;;16.18;79.34;100099.12;126206;1092;22780;-62
2021/07/02 05:34:23;;;;;;;6.40;1.67;;;;;;;16.24;79.00;100089.88;126454;1092;25708;-63
2021/07/02 05:36:55;;;;;;;7.27;1.90;;;;;;;16.31;79.21;100092.89;126179;1092;22765;-64
2021/07/02 05:39:26;;;;;;;10.85;2.05;;;;;;;16.38;78.87;100097.98;126485;1093;26248;-61
2021/07/02 05:41:57;;;;;;;8.47;1.83;;;;;;;16.43;78.01;100099.98;126348;1092;23482;-61
2021/07/02 05:44:29;;;;;;;7.30;1.50;;;;;;;16.49;78.03;100091.51;126558;1093;22761;-61
2021/07/02 05:47:03;;;;;;;7.65;1.70;;;;;;;16.58;78.54;100088.38;126365;1093;22787;-62
2021/07/02 05:49:35;;;;;;;7.85;1.30;;;;;;;16.66;77.97;100086.52;126283;1092;22772;-62
2021/07/02 05:52:07;;;;;;;6.30;1.60;;;;;;;16.64;77.32;100086.27;126290;1093;24458;-61
2021/07/02 05:54:40;;;;;;;6.10;1.30;;;;;;;16.67;77.99;100086.01;126389;1093;22801;-61
2021/07/02 05:57:11;;;;;;;5.05;1.20;;;;;;;16.74;77.15;100079.01;126332;1093;22791;-60
2021/07/02 05:59:42;;;;;;;7.70;1.45;;;;;;;16.80;77.35;100080.50;126478;1092;22847;-62
2021/07/02 06:02:14;;;;;;;5.25;1.40;;;;;;;16.88;77.35;100078.63;126408;1092;22779;-62
2021/07/02 06:04:45;;;;;;;5.10;1.25;;;;;;;16.96;77.42;100079.60;126235;1093;22778;-67
2021/07/02 06:07:16;;;;;;;5.75;1.40;;;;;;;17.06;77.09;100085.66;126343;1093;22841;-62
2021/07/02 06:09:47;;;;;;;5.30;1.25;;;;;;;17.13;76.57;100081.48;126247;1093;22926;-62
2021/07/02 06:12:19;;;;;;;3.65;1.00;;;;;;;17.16;75.21;100094.52;126265;1092;22765;-62
2021/07/02 06:14:50;;;;;;;4.60;0.90;;;;;;;17.20;75.66;100094.99;127690;1092;22834;-63
2021/07/02 06:17:22;;;;;;;3.85;0.80;;;;;;;17.25;74.53;100097.78;127332;1093;24488;-63
2021/07/02 06:19:54;;;;;;;4.47;0.90;;;;;;;17.29;74.64;100103.11;126305;1093;26005;-62
2021/07/02 06:22:26;;;;;;;5.20;0.90;;;;;;;17.29;75.44;100095.42;126274;1093;22757;-61
2021/07/02 06:24:59;;;;;;;10.25;1.15;;;;;;;17.40;74.42;100098.11;126412;1092;22764;-62
2021/07/02 06:27:33;;;;;;;3.80;0.80;;;;;;;17.46;74.85;100093.16;126474;1092;22794;-60
2021/07/02 06:30:07;;;;;;;2.75;0.60;;;;;;;17.47;74.18;100088.28;126415;1093;22764;-60
2021/07/02 06:32:38;;;;;;;3.70;1.10;;;;;;;17.54;75.15;100094.16;126438;1092;22841;-62
2021/07/02 06:35:11;;;;;;;4.90;0.80;;;;;;;17.65;74.06;100079.88;126272;1093;27535;-62
2021/07/02 06:37:48;;;;;;;7.85;1.50;;;;;;;17.73;74.08;100077.24;126506;1092;22833;-61
2021/07/02 06:40:21;;;;;;;5.55;1.10;;;;;;;17.75;73.70;100078.22;126325;1092;22785;-61
2021/07/02 06:42:52;;;;;;;5.35;0.90;;;;;;;17.76;73.62;100085.41;126406;1093;22766;-63
2021/07/02 06:45:24;;;;;;;4.70;0.90;;;;;;;17.83;73.78;100081.22;126297;1092;22757;-62
2021/07/02 06:47:58;;;;;;;3.05;0.80;;;;;;;17.92;73.53;100091.38;126363;1092;22766;-62
2021/07/02 06:50:31;;;;;;;4.40;0.80;;;;;;;17.96;73.35;100081.28;126371;1093;22794;-62
2021/07/02 06:53:04;;;;;;;5.10;1.00;;;;;;;18.00;73.25;100086.64;126281;1093;22788;-62
2021/07/02 06:55:38;;;;;;;2.85;0.75;;;;;;;17.99;72.57;100090.75;126346;1093;22800;-61
2021/07/02 06:58:10;;;;;;;2.45;0.80;;;;;;;17.95;72.98;100091.06;126272;1093;22768;-62
2021/07/02 07:00:42;;;;;;;6.90;1.10;;;;;;;17.97;72.47;100091.30;126193;1092;27195;-62
2021/07/02 07:03:14;;;;;;;3.70;0.80;;;;;;;18.04;72.35;100095.58;126375;1092;22898;-62
2021/07/02 07:05:46;;;;;;;3.73;0.90;;;;;;;18.12;72.36;100093.66;126151;1093;22761;-63
2021/07/02 07:08:17;;;;;;;5.35;1.25;;;;;;;18.26;72.46;100096.03;126196;1092;22761;-62
2021/07/02 07:10:49;;;;;;;4.87;1.00;;;;;;;18.39;72.06;100095.33;126200;1093;26248;-62
2021/07/02 07:13:20;;;;;;;2.87;0.90;;;;;;;18.50;71.66;100107.25;126222;1092;22770;-62
2021/07/02 07:15:55;;;;;;;5.05;1.00;;;;;;;18.58;70.96;100095.33;126280;1093;22747;-61
2021/07/02 07:18:26;;;;;;;6.10;1.07;;;;;;;18.60;70.48;100101.97;126116;1093;22752;-62
2021/07/02 07:20:57;;;;;;;5.18;0.98;;;;;;;18.60;70.38;100095.55;126140;1093;22815;-62
2021/07/02 07:23:29;;;;;;;3.63;0.80;;;;;;;18.62;70.19;100104.25;126415;1092;25720;-62
2021/07/02 07:26:00;;;;;;;3.63;0.80;;;;;;;18.75;70.17;100099.39;126094;1092;22854;-63
2021/07/02 07:28:32;;;;;;;4.37;0.90;;;;;;;18.95;70.52;100093.16;126136;1093;22764;-62
2021/07/02 07:31:06;;;;;;;3.95;0.88;;;;;;;19.13;69.29;100095.14;126219;1091;27207;-65
2021/07/02 07:33:40;;;;;;;2.97;0.83;;;;;;;19.25;69.73;100090.03;126050;1093;24178;-61
2021/07/02 07:36:15;;;;;;;5.60;0.80;;;;;;;19.39;69.01;100085.19;126102;1092;22765;-63
2021/07/02 07:39:03;;;;;;;2.60;0.60;;;;;;;19.42;68.83;100082.02;126170;1093;24426;-62
2021/07/02 07:41:34;;;;;;;3.40;0.87;;;;;;;19.51;67.88;100087.26;126095;1093;27526;-61
2021/07/02 07:44:07;;;;;;;4.97;0.90;;;;;;;19.49;66.59;100087.02;126467;1093;22800;-62
2021/07/02 07:46:39;;;;;;;4.78;0.70;;;;;;;19.41;66.68;100085.41;126359;1092;25590;-64
2021/07/02 07:49:11;;;;;;;4.97;0.80;;;;;;;19.46;67.43;100090.18;126067;1092;27204;-63
2021/07/02 07:51:47;;;;;;;5.00;0.90;;;;;;;19.58;67.08;100085.81;126202;1093;22788;-61
2021/07/02 07:54:19;;;;;;;2.95;0.80;;;;;;;19.61;66.10;100094.00;126307;1092;22765;-64
2021/07/02 07:56:53;;;;;;;3.97;0.80;;;;;;;19.57;65.52;100093.57;126086;1093;22770;-62
2021/07/02 07:59:28;;;;;;;4.25;0.90;;;;;;;19.50;65.76;100094.22;126154;1093;22946;-62
2021/07/02 08:01:59;;;;;;;2.90;0.80;;;;;;;19.46;66.02;100090.18;126261;1093;22804;-62
2021/07/02 08:04:31;;;;;;;2.55;0.83;;;;;;;19.44;65.41;100099.23;126144;1093;22760;-62
2021/07/02 08:07:03;;;;;;;4.00;1.00;;;;;;;19.47;66.13;100097.38;126119;1093;26577;-64
2021/07/02 08:09:35;;;;;;;5.25;1.00;;;;;;;19.57;66.12;100095.64;126274;1092;22764;-62
2021/07/02 08:12:08;;;;;;;3.23;0.83;;;;;;;19.66;65.72;100092.34;126181;1093;22939;-63
2021/07/02 08:14:39;;;;;;;5.33;1.00;;;;;;;19.78;66.65;100083.08;126416;1092;22860;-64
2021/07/02 08:17:11;;;;;;;4.45;0.83;;;;;;;19.98;66.09;100092.97;126228;1092;28885;-62
2021/07/02 08:19:43;;;;;;;4.00;0.80;;;;;;;20.09;65.63;100089.91;126621;1093;22735;-64
2021/07/02 08:22:14;;;;;;;7.25;0.73;;;;;;;20.06;64.38;100079.66;126378;1092;22845;-61
2021/07/02 08:24:46;;;;;;;5.73;0.90;;;;;;;19.99;64.97;100083.91;126386;1092;22784;-62
2021/07/02 08:27:20;;;;;;;5.58;0.90;;;;;;;20.00;64.04;100085.45;126338;1092;23531;-65
2021/07/02 08:29:52;;;;;;;2.08;0.60;;;;;;;19.97;63.50;100082.94;126460;1093;22787;-61
2021/07/02 08:32:24;;;;;;;2.85;0.70;;;;;;;19.95;64.13;100082.72;126379;1092;22925;-61
2021/07/02 08:34:55;;;;;;;3.40;0.65;;;;;;;19.96;63.14;100090.69;126315;1093;22802;-61
2021/07/02 08:37:33;;;;;;;3.58;0.60;;;;;;;19.86;63.72;100089.59;126232;1092;22791;-62
2021/07/02 08:40:05;;;;;;;2.85;0.70;;;;;;;19.78;63.36;100090.83;128440;1093;22790;-62
2021/07/02 08:42:38;;;;;;;3.77;0.67;;;;;;;19.85;64.21;100079.59;126540;1092;22791;-62
2021/07/02 08:45:11;;;;;;;3.18;0.50;;;;;;;19.96;64.08;100082.20;126447;1092;22784;-61
2021/07/02 08:47:43;;;;;;;2.27;0.60;;;;;;;20.02;63.28;100076.39;126567;1092;22814;-62
2021/07/02 08:50:15;;;;;;;3.58;0.70;;;;;;;20.02;63.40;100080.00;126473;1092;22797;-61
2021/07/02 08:52:48;;;;;;;5.45;0.70;;;;;;;20.04;63.46;100083.05;126551;1093;28359;-63
2021/07/02 08:55:23;;;;;;;2.43;0.60;;;;;;;19.91;63.39;100085.13;126429;1092;24462;-62
2021/07/02 08:57:55;;;;;;;3.48;0.50;;;;;;;19.79;63.15;100093.11;126449;1093;22872;-62
2021/07/02 09:00:28;;;;;;;3.33;0.70;;;;;;;19.69;63.36;100094.09;126449;1093;27365;-66
2021/07/02 09:02:59;;;;;;;2.23;0.60;;;;;;;19.62;63.49;100089.08;126379;1093;22836;-60
2021/07/02 09:05:35;;;;;;;3.65;0.50;;;;;;;19.53;63.95;100086.70;126267;1093;22746;-63
2021/07/02 09:08:14;;;;;;;5.55;0.78;;;;;;;19.48;64.00;100085.50;126435;1092;27194;-62
2021/07/02 09:10:48;;;;;;;2.88;0.80;;;;;;;19.53;64.84;100084.64;126465;1093;26242;-62
2021/07/02 09:13:19;;;;;;;2.63;0.80;;;;;;;19.68;64.26;100079.17;126462;1093;22758;-61
2021/07/02 09:15:51;;;;;;;2.88;0.70;;;;;;;19.79;64.40;100078.18;126369;1093;22815;-61
2021/07/02 09:18:24;;;;;;;3.15;0.68;;;;;;;19.84;64.26;100080.14;126415;1093;23135;-63
2021/07/02 09:20:58;;;;;;;3.65;0.83;;;;;;;19.94;63.69;100079.15;126381;1093;22986;-64
2021/07/02 09:23:40;;;;;;;3.05;0.73;;;;;;;20.04;64.21;100082.27;126336;1092;22764;-61
2021/07/02 09:26:12;;;;;;;2.45;0.70;;;;;;;20.18;63.35;100093.03;126355;1093;24467;-62
2021/07/02 09:28:44;;;;;;;2.75;0.60;;;;;;;20.32;63.50;100076.76;126368;1093;27398;-63
2021/07/02 09:31:36;;;;;;;3.23;0.50;;;;;;;20.49;62.65;100077.13;126342;1092;22707;-62
2021/07/02 09:34:18;;;;;;;4.55;0.55;;;;;;;20.66;61.99;100086.00;126251;1092;22849;-62
2021/07/02 09:36:49;;;;;;;1.55;0.48;;;;;;;20.73;61.50;100085.30;126570;1093;22757;-62
2021/07/02 09:39:33;;;;;;;3.30;0.40;;;;;;;20.79;61.68;100079.50;126509;1093;22787;-62
2021/07/02 09:42:21;;;;;;;3.97;0.50;;;;;;;20.86;61.82;100081.63;128241;1093;22830;-63
2021/07/02 09:45:09;;;;;;;2.90;0.70;;;;;;;20.84;61.53;100084.27;126738;1093;28474;-62
2021/07/02 09:47:42;;;;;;;3.53;0.60;;;;;;;20.48;61.83;100089.80;126521;1092;23092;-62
2021/07/02 09:50:28;;;;;;;3.43;0.70;;;;;;;20.21;62.63;100094.04;126441;1093;25411;-61
2021/07/02 09:53:05;;;;;;;1.50;0.60;;;;;;;19.97;62.90;100086.53;126429;1093;22778;-61
2021/07/02 09:55:43;;;;;;;1.73;0.60;;;;;;;19.81;63.32;100086.89;126499;1093;22791;-62
2021/07/02 09:58:17;;;;;;;2.23;0.73;;;;;;;19.67;63.50;100093.88;126486;1093;22765;-61
2021/07/02 10:00:51;;;;;;;3.25;0.70;;;;;;;19.62;63.35;100094.75;126407;1091;22810;-62
2021/07/02 10:03:27;;;;;;;2.38;0.60;;;;;;;19.60;63.65;100089.63;126403;1093;22758;-62
2021/07/02 10:06:01;;;;;;;3.25;0.70;;;;;;;19.59;64.12;100087.36;126398;1092;22847;-63
2021/07/02 10:08:34;;;;;;;4.43;0.88;;;;;;;19.60;63.97;100083.97;126576;1093;27412;-62
2021/07/02 10:11:07;;;;;;;3.03;0.78;;;;;;;19.65;63.69;100088.77;126442;1093;23203;-62
2021/07/02 10:13:40;;;;;;;3.58;0.70;;;;;;;19.69;63.37;100100.53;126395;1093;22714;-63
2021/07/02 10:16:15;;;;;;;2.43;0.60;;;;;;;19.63;63.67;100088.55;126539;1093;22809;-67
2021/07/02 10:18:51;;;;;;;2.55;0.50;;;;;;;19.58;63.98;100091.48;126370;1093;22799;-61
2021/07/02 10:21:24;;;;;;;3.43;0.68;;;;;;;19.53;64.53;100098.03;126408;1092;22847;-59
2021/07/02 10:23:58;;;;;;;2.63;0.48;;;;;;;19.49;64.74;100097.59;126398;1092;22772;-62
2021/07/02 10:26:31;;;;;;;2.03;0.60;;;;;;;19.45;64.95;100097.91;126340;1092;23004;-67
2021/07/02 10:29:04;;;;;;;3.70;1.00;;;;;;;19.48;64.79;100108.16;126341;1093;26242;-62
2021/07/02 10:31:36;;;;;;;3.75;0.90;;;;;;;19.50;64.88;100108.38;126284;1093;24446;-66
2021/07/02 10:34:10;;;;;;;5.53;1.30;;;;;;;19.50;64.98;100110.44;126448;1092;22787;-66
2021/07/02 10:36:43;;;;;;;4.77;1.20;;;;;;;19.58;64.95;100116.97;126300;1092;25755;-62
2021/07/02 10:39:31;;;;;;;4.10;1.00;;;;;;;19.70;64.93;100123.96;126408;1092;22790;-61
2021/07/02 10:42:09;;;;;;;4.28;1.10;;;;;;;19.74;64.38;100119.47;126376;1093;22781;-62
2021/07/02 10:45:17;;;;;;;4.88;1.20;;;;;;;19.86;64.33;100117.19;126372;1092;24442;-64
2021/07/02 10:47:54;;;;;;;3.85;0.93;;;;;;;19.99;64.12;100122.81;126263;1093;22857;-61
2021/07/02 10:50:43;;;;;;;4.10;1.15;;;;;;;20.07;63.96;100121.61;126351;1093;27204;-62
2021/07/02 10:53:32;;;;;;;4.85;1.40;;;;;;;20.21;63.79;100118.78;126341;1093;22771;-61
2021/07/02 10:56:28;;;;;;;4.73;1.20;;;;;;;20.30;63.92;100116.23;126179;1093;22782;-62
2021/07/02 10:59:02;;;;;;;5.70;1.60;;;;;;;20.32;64.12;100118.55;126370;1092;22797;-65
2021/07/02 11:01:34;;;;;;;4.95;1.30;;;;;;;20.40;63.66;100127.89;126209;1092;22778;-62
2021/07/02 11:04:35;;;;;;;4.95;1.43;;;;;;;20.40;63.49;100130.73;126505;1093;22815;-62
2021/07/02 11:07:49;;;;;;;4.30;1.23;;;;;;;20.42;64.31;100133.77;126303;1092;22798;-61
2021/07/02 11:10:22;;;;;;;5.75;1.33;;;;;;;20.42;63.78;100130.94;126174;1093;22764;-64
2021/07/02 11:13:05;;;;;;;5.20;1.45;;;;;;;;;;126216;1092;24477;-62
2021/07/02 11:15:37;;;;;;;5.90;1.50;;;;;;;20.48;64.02;100138.02;126267;1093;27753;-62
2021/07/02 11:18:21;;;;;;;3.78;1.13;;;;;;;20.51;62.71;100136.89;126160;1093;23163;-62
2021/07/02 11:20:52;;;;;;;6.83;1.70;;;;;;;20.43;63.21;100135.28;126220;1093;22774;-62
2021/07/02 11:23:27;;;;;;;5.85;1.60;;;;;;;20.40;63.29;100133.56;126313;1091;22805;-61
2021/07/02 11:26:04;;;;;;;5.73;1.23;;;;;;;20.35;63.46;100134.44;126325;1092;27318;-65
2021/07/02 11:28:52;;;;;;;6.63;1.60;;;;;;;20.30;63.66;100141.75;126291;1093;22773;-62
2021/07/02 11:31:38;;;;;;;6.78;1.45;;;;;;;20.24;63.75;100137.52;126262;1093;22764;-62
2021/07/02 11:34:20;;;;;;;7.43;1.48;;;;;;;20.17;63.94;100139.67;126266;1092;22791;-61
2021/07/02 11:37:10;;;;;;;6.03;1.38;;;;;;;20.04;63.79;100134.05;126363;1091;22864;-62
2021/07/02 11:39:47;;;;;;;7.10;1.60;;;;;;;19.89;64.08;100136.68;126545;1093;25765;-66
2021/07/02 11:42:20;;;;;;;6.05;1.28;;;;;;;19.81;64.26;100135.05;126436;1092;24166;-61
2021/07/02 11:44:51;;;;;;;5.40;1.40;;;;;;;19.76;64.54;100131.02;126232;1093;27205;-62
2021/07/02 11:47:23;;;;;;;6.90;1.20;;;;;;;19.75;64.75;100143.67;126342;1091;25774;-62